sensor_id;sensor_type;location;lat;lon;timestamp;pressure;altitude;pressure_sealevel;temperature;humidity
4024;BME280;2026;51.002;13.668;2023-03-04T00:00:46;99461.25;;;0.74;94.46
4024;BME280;2026;51.002;13.668;2023-03-04T00:05:49;99459.47;;;0.74;94.47
4024;BME280;2026;51.002;13.668;2023-03-04T00:10:53;99460.16;;;0.66;94.55
4024;BME280;2026;51.002;13.668;2023-03-04T00:15:56;99458.78;;;0.72;94.26
4024;BME280;2026;51.002;13.668;2023-03-04T00:20:59;99449.81;;;0.76;94.01
4024;BME280;2026;51.002;13.668;2023-03-04T00:26:03;99439.47;;;0.76;94.15
4024;BME280;2026;51.002;13.668;2023-03-04T00:31:07;99441.50;;;0.82;94.30
4024;BME280;2026;51.002;13.668;2023-03-04T00:36:10;99438.09;;;0.92;93.81
4024;BME280;2026;51.002;13.668;2023-03-04T00:41:15;99429.72;;;0.70;94.65
4024;BME280;2026;51.002;13.668;2023-03-04T00:46:18;99434.19;;;0.78;94.20
4024;BME280;2026;51.002;13.668;2023-03-04T00:51:21;99425.78;;;0.76;94.28
4024;BME280;2026;51.002;13.668;2023-03-04T00:56:25;99420.44;;;0.87;94.22
4024;BME280;2026;51.002;13.668;2023-03-04T01:01:28;99417.47;;;0.82;93.92
4024;BME280;2026;51.002;13.668;2023-03-04T01:06:31;99413.53;;;0.88;93.71
4024;BME280;2026;51.002;13.668;2023-03-04T01:11:36;99416.00;;;0.79;94.26
4024;BME280;2026;51.002;13.668;2023-03-04T01:16:39;99402.78;;;0.82;94.25
4024;BME280;2026;51.002;13.668;2023-03-04T01:21:41;99393.94;;;0.95;93.46
4024;BME280;2026;51.002;13.668;2023-03-04T01:26:46;99388.94;;;0.83;93.34
4024;BME280;2026;51.002;13.668;2023-03-04T01:31:49;99379.25;;;0.95;92.95
4024;BME280;2026;51.002;13.668;2023-03-04T01:36:54;99380.38;;;0.83;93.88
4024;BME280;2026;51.002;13.668;2023-03-04T01:41:58;99366.63;;;0.92;93.14
4024;BME280;2026;51.002;13.668;2023-03-04T01:47:01;99360.63;;;0.92;92.82
4024;BME280;2026;51.002;13.668;2023-03-04T01:52:04;99352.75;;;0.93;92.56
4024;BME280;2026;51.002;13.668;2023-03-04T01:57:16;99348.97;;;0.97;92.94
4024;BME280;2026;51.002;13.668;2023-03-04T02:02:19;99346.81;;;0.93;92.83
4024;BME280;2026;51.002;13.668;2023-03-04T02:07:22;99350.31;;;0.92;92.83
4024;BME280;2026;51.002;13.668;2023-03-04T02:12:26;99356.31;;;0.92;92.50
4024;BME280;2026;51.002;13.668;2023-03-04T02:17:30;99342.00;;;0.98;92.65
4024;BME280;2026;51.002;13.668;2023-03-04T02:22:37;99331.94;;;1.05;91.90
4024;BME280;2026;51.002;13.668;2023-03-04T02:27:43;99325.09;;;0.85;92.52
4024;BME280;2026;51.002;13.668;2023-03-04T02:32:46;99319.63;;;0.89;92.06
4024;BME280;2026;51.002;13.668;2023-03-04T02:37:49;99322.88;;;0.91;92.08
4024;BME280;2026;51.002;13.668;2023-03-04T02:42:54;99306.56;;;1.00;91.83
4024;BME280;2026;51.002;13.668;2023-03-04T02:47:57;99304.63;;;1.02;91.62
4024;BME280;2026;51.002;13.668;2023-03-04T02:53:00;99307.91;;;0.94;92.33
4024;BME280;2026;51.002;13.668;2023-03-04T02:58:05;99292.94;;;0.98;92.27
4024;BME280;2026;51.002;13.668;2023-03-04T03:03:08;99288.19;;;1.03;91.98
4024;BME280;2026;51.002;13.668;2023-03-04T03:08:12;99292.78;;;1.09;91.53
4024;BME280;2026;51.002;13.668;2023-03-04T03:13:16;99290.53;;;0.96;92.35
4024;BME280;2026;51.002;13.668;2023-03-04T03:18:20;99284.53;;;0.96;92.41
4024;BME280;2026;51.002;13.668;2023-03-04T03:23:23;99281.56;;;0.91;93.26
4024;BME280;2026;51.002;13.668;2023-03-04T03:28:27;99288.75;;;0.97;93.15
4024;BME280;2026;51.002;13.668;2023-03-04T03:33:30;99279.78;;;1.01;93.05
4024;BME280;2026;51.002;13.668;2023-03-04T03:38:34;99276.03;;;0.85;93.10
4024;BME280;2026;51.002;13.668;2023-03-04T03:43:38;99270.19;;;0.83;93.07
4024;BME280;2026;51.002;13.668;2023-03-04T03:48:41;99271.78;;;0.94;92.77
4024;BME280;2026;51.002;13.668;2023-03-04T03:53:44;99263.88;;;0.96;92.49
4024;BME280;2026;51.002;13.668;2023-03-04T03:58:48;99266.06;;;0.91;92.58
4024;BME280;2026;51.002;13.668;2023-03-04T04:03:51;99268.88;;;0.79;92.86
4024;BME280;2026;51.002;13.668;2023-03-04T04:08:54;99280.69;;;0.82;92.79
4024;BME280;2026;51.002;13.668;2023-03-04T04:13:59;99274.69;;;0.81;92.93
4024;BME280;2026;51.002;13.668;2023-03-04T04:19:02;99283.78;;;0.85;92.77
4024;BME280;2026;51.002;13.668;2023-03-04T04:24:05;99278.19;;;0.90;92.91
4024;BME280;2026;51.002;13.668;2023-03-04T04:29:12;99282.81;;;0.87;92.20
4024;BME280;2026;51.002;13.668;2023-03-04T04:34:15;99271.25;;;0.91;92.21
4024;BME280;2026;51.002;13.668;2023-03-04T04:39:18;99273.66;;;1.02;91.65
4024;BME280;2026;51.002;13.668;2023-03-04T04:44:23;99270.09;;;1.03;91.07
4024;BME280;2026;51.002;13.668;2023-03-04T04:49:26;99264.84;;;0.95;92.18
4024;BME280;2026;51.002;13.668;2023-03-04T04:54:29;99271.06;;;1.02;91.76
4024;BME280;2026;51.002;13.668;2023-03-04T04:59:33;99264.63;;;1.06;91.26
4024;BME280;2026;51.002;13.668;2023-03-04T05:04:36;99263.88;;;0.96;92.06
4024;BME280;2026;51.002;13.668;2023-03-04T05:09:39;99263.69;;;1.07;91.57
4024;BME280;2026;51.002;13.668;2023-03-04T05:14:43;99266.50;;;1.14;91.09
4024;BME280;2026;51.002;13.668;2023-03-04T05:19:47;99262.16;;;1.15;91.39
4024;BME280;2026;51.002;13.668;2023-03-04T05:24:50;99260.75;;;1.02;91.97
4024;BME280;2026;51.002;13.668;2023-03-04T05:29:54;99252.56;;;1.07;92.05
4024;BME280;2026;51.002;13.668;2023-03-04T05:35:01;99247.16;;;1.18;91.35
4024;BME280;2026;51.002;13.668;2023-03-04T05:40:05;99247.47;;;1.15;91.59
4024;BME280;2026;51.002;13.668;2023-03-04T05:45:10;99246.66;;;1.15;91.23
4024;BME280;2026;51.002;13.668;2023-03-04T05:50:13;99231.09;;;1.24;91.39
4024;BME280;2026;51.002;13.668;2023-03-04T05:55:17;99230.56;;;1.21;91.61
4024;BME280;2026;51.002;13.668;2023-03-04T06:00:22;99223.13;;;1.18;91.17
4024;BME280;2026;51.002;13.668;2023-03-04T06:05:25;99228.06;;;1.29;90.90
4024;BME280;2026;51.002;13.668;2023-03-04T06:10:28;99230.97;;;1.44;90.38
4024;BME280;2026;51.002;13.668;2023-03-04T06:15:32;99230.53;;;1.31;91.41
4024;BME280;2026;51.002;13.668;2023-03-04T06:20:36;99237.69;;;1.37;91.28
4024;BME280;2026;51.002;13.668;2023-03-04T06:25:39;99231.69;;;1.36;91.64
4024;BME280;2026;51.002;13.668;2023-03-04T06:30:43;99232.88;;;1.42;90.81
4024;BME280;2026;51.002;13.668;2023-03-04T06:35:46;99226.16;;;1.49;91.26
4024;BME280;2026;51.002;13.668;2023-03-04T06:40:50;99233.09;;;1.49;91.71
4024;BME280;2026;51.002;13.668;2023-03-04T06:45:54;99227.19;;;1.57;91.57
4024;BME280;2026;51.002;13.668;2023-03-04T06:50:57;99231.03;;;1.71;90.86
4024;BME280;2026;51.002;13.668;2023-03-04T06:56:01;99222.84;;;1.57;91.62
4024;BME280;2026;51.002;13.668;2023-03-04T07:01:13;99226.47;;;1.64;91.23
4024;BME280;2026;51.002;13.668;2023-03-04T07:06:17;99234.03;;;1.66;91.78
4024;BME280;2026;51.002;13.668;2023-03-04T07:11:21;99231.03;;;1.71;91.72
4024;BME280;2026;51.002;13.668;2023-03-04T07:16:26;99226.88;;;1.78;91.97
4024;BME280;2026;51.002;13.668;2023-03-04T07:21:29;99214.31;;;1.83;92.42
4024;BME280;2026;51.002;13.668;2023-03-04T07:26:33;99232.41;;;1.65;93.52
4024;BME280;2026;51.002;13.668;2023-03-04T07:31:39;99219.47;;;1.83;93.37
4024;BME280;2026;51.002;13.668;2023-03-04T07:36:43;99230.78;;;1.82;93.48
4024;BME280;2026;51.002;13.668;2023-03-04T07:41:46;99217.19;;;1.98;93.08
4024;BME280;2026;51.002;13.668;2023-03-04T07:46:50;99217.97;;;1.99;92.98
4024;BME280;2026;51.002;13.668;2023-03-04T07:51:54;99212.19;;;2.05;93.32
4024;BME280;2026;51.002;13.668;2023-03-04T07:56:57;99214.00;;;2.13;92.77
4024;BME280;2026;51.002;13.668;2023-03-04T08:02:01;99218.63;;;2.27;93.02
4024;BME280;2026;51.002;13.668;2023-03-04T08:07:04;99217.56;;;2.38;92.63
4024;BME280;2026;51.002;13.668;2023-03-04T08:12:07;99218.00;;;2.33;92.50
4024;BME280;2026;51.002;13.668;2023-03-04T08:17:11;99205.94;;;2.42;92.93
4024;BME280;2026;51.002;13.668;2023-03-04T08:22:15;99203.91;;;2.62;93.71
4024;BME280;2026;51.002;13.668;2023-03-04T08:27:18;99204.75;;;2.80;92.34
4024;BME280;2026;51.002;13.668;2023-03-04T08:32:23;99204.09;;;2.69;92.72
4024;BME280;2026;51.002;13.668;2023-03-04T08:37:26;99202.13;;;2.63;94.24
4024;BME280;2026;51.002;13.668;2023-03-04T08:42:29;99194.59;;;2.86;93.41
4024;BME280;2026;51.002;13.668;2023-03-04T08:47:33;99192.53;;;2.98;93.03
4024;BME280;2026;51.002;13.668;2023-03-04T08:52:36;99189.97;;;3.23;92.54
4024;BME280;2026;51.002;13.668;2023-03-04T08:57:39;99185.91;;;3.21;91.29
4024;BME280;2026;51.002;13.668;2023-03-04T09:02:43;99183.97;;;3.23;92.15
4024;BME280;2026;51.002;13.668;2023-03-04T09:07:46;99186.25;;;3.17;92.17
4024;BME280;2026;51.002;13.668;2023-03-04T09:12:49;99186.06;;;3.11;92.91
4024;BME280;2026;51.002;13.668;2023-03-04T09:17:54;99186.75;;;3.38;93.28
4024;BME280;2026;51.002;13.668;2023-03-04T09:22:57;99188.22;;;3.49;92.25
4024;BME280;2026;51.002;13.668;2023-03-04T09:28:00;99192.91;;;3.45;91.75
4024;BME280;2026;51.002;13.668;2023-03-04T09:33:05;99196.16;;;3.47;91.73
4024;BME280;2026;51.002;13.668;2023-03-04T09:38:08;99184.66;;;3.50;91.35
4024;BME280;2026;51.002;13.668;2023-03-04T09:43:18;99181.72;;;3.61;91.58
4024;BME280;2026;51.002;13.668;2023-03-04T09:48:27;99178.97;;;3.71;92.17
4024;BME280;2026;51.002;13.668;2023-03-04T09:53:36;99179.28;;;3.76;92.40
4024;BME280;2026;51.002;13.668;2023-03-04T09:58:48;99177.19;;;3.80;91.14
4024;BME280;2026;51.002;13.668;2023-03-04T10:03:58;99168.09;;;3.76;91.86
4024;BME280;2026;51.002;13.668;2023-03-04T10:09:05;99168.28;;;3.66;91.62
4024;BME280;2026;51.002;13.668;2023-03-04T10:14:32;99164.53;;;3.93;90.76
4024;BME280;2026;51.002;13.668;2023-03-04T10:19:48;99166.09;;;4.11;89.94
4024;BME280;2026;51.002;13.668;2023-03-04T10:24:55;99162.19;;;4.07;90.37
4024;BME280;2026;51.002;13.668;2023-03-04T10:29:59;99152.97;;;3.96;90.61
4024;BME280;2026;51.002;13.668;2023-03-04T10:35:10;99150.50;;;4.19;90.95
4024;BME280;2026;51.002;13.668;2023-03-04T10:40:22;99146.47;;;4.08;91.38
4024;BME280;2026;51.002;13.668;2023-03-04T10:45:29;99145.50;;;4.09;91.02
4024;BME280;2026;51.002;13.668;2023-03-04T10:50:37;99135.91;;;4.18;90.53
4024;BME280;2026;51.002;13.668;2023-03-04T10:55:44;99149.38;;;4.13;90.20
4024;BME280;2026;51.002;13.668;2023-03-04T11:00:58;99146.78;;;4.13;90.70
4024;BME280;2026;51.002;13.668;2023-03-04T11:06:18;99137.75;;;3.93;92.24
4024;BME280;2026;51.002;13.668;2023-03-04T11:11:24;99132.22;;;3.96;92.72
4024;BME280;2026;51.002;13.668;2023-03-04T11:16:29;99133.09;;;3.80;92.52
4024;BME280;2026;51.002;13.668;2023-03-04T11:21:37;99133.84;;;3.97;92.12
4024;BME280;2026;51.002;13.668;2023-03-04T11:26:44;99135.19;;;3.84;92.55
4024;BME280;2026;51.002;13.668;2023-03-04T11:31:52;99119.75;;;3.91;92.77
4024;BME280;2026;51.002;13.668;2023-03-04T11:37:03;99123.75;;;4.10;92.12
4024;BME280;2026;51.002;13.668;2023-03-04T11:42:16;99122.13;;;4.18;91.82
4024;BME280;2026;51.002;13.668;2023-03-04T11:47:41;99113.31;;;4.27;92.26
4024;BME280;2026;51.002;13.668;2023-03-04T11:53:27;99112.44;;;4.43;91.98
4024;BME280;2026;51.002;13.668;2023-03-04T11:58:53;99105.50;;;4.35;90.39
4024;BME280;2026;51.002;13.668;2023-03-04T12:04:09;99102.25;;;4.33;90.85
4024;BME280;2026;51.002;13.668;2023-03-04T12:09:28;99094.91;;;4.45;90.39
4024;BME280;2026;51.002;13.668;2023-03-04T12:14:38;99086.75;;;4.56;89.88
4024;BME280;2026;51.002;13.668;2023-03-04T12:19:55;99092.41;;;4.60;89.48
4024;BME280;2026;51.002;13.668;2023-03-04T12:30:34;99069.06;;;4.52;89.54
4024;BME280;2026;51.002;13.668;2023-03-04T12:35:45;99059.94;;;4.56;88.63
4024;BME280;2026;51.002;13.668;2023-03-04T12:41:00;99064.75;;;4.67;88.36
4024;BME280;2026;51.002;13.668;2023-03-04T12:46:11;99060.69;;;4.88;86.94
4024;BME280;2026;51.002;13.668;2023-03-04T12:51:30;99057.75;;;4.68;88.12
4024;BME280;2026;51.002;13.668;2023-03-04T12:56:40;99048.16;;;4.92;86.92
4024;BME280;2026;51.002;13.668;2023-03-04T13:01:49;99051.00;;;5.05;86.49
4024;BME280;2026;51.002;13.668;2023-03-04T13:07:07;99044.94;;;4.90;86.60
4024;BME280;2026;51.002;13.668;2023-03-04T13:12:18;99031.22;;;4.81;86.96
4024;BME280;2026;51.002;13.668;2023-03-04T13:17:38;99039.06;;;4.73;87.06
4024;BME280;2026;51.002;13.668;2023-03-04T13:22:46;99032.81;;;5.05;86.41
4024;BME280;2026;51.002;13.668;2023-03-04T13:28:15;99026.91;;;5.11;85.23
4024;BME280;2026;51.002;13.668;2023-03-04T13:33:42;99021.84;;;4.95;85.83
4024;BME280;2026;51.002;13.668;2023-03-04T13:38:56;99021.81;;;5.18;84.50
4024;BME280;2026;51.002;13.668;2023-03-04T13:49:23;99021.47;;;5.36;82.88
4024;BME280;2026;51.002;13.668;2023-03-04T13:54:28;99021.13;;;5.55;82.55
4024;BME280;2026;51.002;13.668;2023-03-04T13:59:38;99013.75;;;5.43;83.13
4024;BME280;2026;51.002;13.668;2023-03-04T14:04:44;99004.97;;;5.44;82.41
4024;BME280;2026;51.002;13.668;2023-03-04T14:09:57;99005.41;;;5.33;83.43
4024;BME280;2026;51.002;13.668;2023-03-04T14:15:14;99004.59;;;5.32;84.23
4024;BME280;2026;51.002;13.668;2023-03-04T14:20:24;99003.97;;;5.60;83.47
4024;BME280;2026;51.002;13.668;2023-03-04T14:25:29;98988.81;;;5.34;83.79
4024;BME280;2026;51.002;13.668;2023-03-04T14:30:34;98993.13;;;5.57;83.57
4024;BME280;2026;51.002;13.668;2023-03-04T14:35:46;98990.00;;;5.61;82.81
4024;BME280;2026;51.002;13.668;2023-03-04T14:40:51;98987.13;;;5.56;83.48
4024;BME280;2026;51.002;13.668;2023-03-04T14:45:58;98984.16;;;5.44;83.63
4024;BME280;2026;51.002;13.668;2023-03-04T14:51:04;98990.97;;;5.45;83.19
4024;BME280;2026;51.002;13.668;2023-03-04T14:56:09;98982.00;;;5.48;82.80
4024;BME280;2026;51.002;13.668;2023-03-04T15:01:16;98975.56;;;5.29;83.92
4024;BME280;2026;51.002;13.668;2023-03-04T15:06:23;98986.69;;;5.22;84.32
4024;BME280;2026;51.002;13.668;2023-03-04T15:11:28;98983.25;;;5.07;86.68
4024;BME280;2026;51.002;13.668;2023-03-04T15:16:53;98984.91;;;4.84;86.90
4024;BME280;2026;51.002;13.668;2023-03-04T15:22:03;98978.94;;;5.14;84.14
4024;BME280;2026;51.002;13.668;2023-03-04T15:27:07;98983.06;;;4.93;84.95
4024;BME280;2026;51.002;13.668;2023-03-04T15:32:13;98978.94;;;4.99;84.05
4024;BME280;2026;51.002;13.668;2023-03-04T15:37:19;98989.84;;;4.94;84.22
4024;BME280;2026;51.002;13.668;2023-03-04T15:42:24;98988.78;;;5.04;81.77
4024;BME280;2026;51.002;13.668;2023-03-04T15:47:30;98982.44;;;4.91;80.64
4024;BME280;2026;51.002;13.668;2023-03-04T15:52:32;98989.31;;;4.84;80.59
4024;BME280;2026;51.002;13.668;2023-03-04T15:57:37;98989.63;;;4.81;81.42
4024;BME280;2026;51.002;13.668;2023-03-04T16:02:41;98996.38;;;4.52;82.96
4024;BME280;2026;51.002;13.668;2023-03-04T16:07:45;98992.59;;;4.54;82.89
4024;BME280;2026;51.002;13.668;2023-03-04T16:12:48;98997.00;;;4.54;83.49
4024;BME280;2026;51.002;13.668;2023-03-04T16:17:53;98986.19;;;4.65;83.00
4024;BME280;2026;51.002;13.668;2023-03-04T16:22:59;98985.72;;;4.62;83.42
4024;BME280;2026;51.002;13.668;2023-03-04T16:28:03;98986.50;;;4.70;83.52
4024;BME280;2026;51.002;13.668;2023-03-04T16:33:08;98993.06;;;4.58;84.48
4024;BME280;2026;51.002;13.668;2023-03-04T16:38:22;98984.94;;;4.61;84.77
4024;BME280;2026;51.002;13.668;2023-03-04T16:43:27;98989.47;;;4.59;84.71
4024;BME280;2026;51.002;13.668;2023-03-04T16:48:32;99013.38;;;4.31;85.92
4024;BME280;2026;51.002;13.668;2023-03-04T16:53:37;98997.19;;;3.97;89.67
4024;BME280;2026;51.002;13.668;2023-03-04T16:58:41;98994.41;;;3.99;89.33
4024;BME280;2026;51.002;13.668;2023-03-04T17:03:46;98995.13;;;3.84;91.29
4024;BME280;2026;51.002;13.668;2023-03-04T17:08:50;99001.94;;;3.85;91.89
4024;BME280;2026;51.002;13.668;2023-03-04T17:13:53;98997.34;;;3.96;91.11
4024;BME280;2026;51.002;13.668;2023-03-04T17:18:58;99004.91;;;3.74;91.87
4024;BME280;2026;51.002;13.668;2023-03-04T17:24:01;99018.44;;;3.93;91.04
4024;BME280;2026;51.002;13.668;2023-03-04T17:29:05;99015.06;;;3.84;92.00
4024;BME280;2026;51.002;13.668;2023-03-04T17:34:09;99024.28;;;3.86;92.60
4024;BME280;2026;51.002;13.668;2023-03-04T17:39:12;99024.63;;;3.83;92.30
4024;BME280;2026;51.002;13.668;2023-03-04T17:44:16;99020.00;;;3.70;91.24
4024;BME280;2026;51.002;13.668;2023-03-04T17:49:21;99029.88;;;3.67;89.96
4024;BME280;2026;51.002;13.668;2023-03-04T17:54:25;99027.56;;;3.80;89.28
4024;BME280;2026;51.002;13.668;2023-03-04T17:59:28;99016.25;;;3.65;90.37
4024;BME280;2026;51.002;13.668;2023-03-04T18:04:33;99023.28;;;3.56;90.40
4024;BME280;2026;51.002;13.668;2023-03-04T18:09:36;99022.75;;;3.69;88.24
4024;BME280;2026;51.002;13.668;2023-03-04T18:14:40;99022.94;;;3.59;88.30
4024;BME280;2026;51.002;13.668;2023-03-04T18:19:44;99025.34;;;3.69;88.05
4024;BME280;2026;51.002;13.668;2023-03-04T18:24:47;99023.44;;;3.46;89.28
4024;BME280;2026;51.002;13.668;2023-03-04T18:29:50;99023.88;;;3.66;89.60
4024;BME280;2026;51.002;13.668;2023-03-04T18:34:55;99009.50;;;3.47;89.74
4024;BME280;2026;51.002;13.668;2023-03-04T18:39:59;99024.28;;;3.46;90.36
4024;BME280;2026;51.002;13.668;2023-03-04T18:45:03;99021.53;;;3.40;91.29
4024;BME280;2026;51.002;13.668;2023-03-04T18:50:09;99021.81;;;3.53;90.53
4024;BME280;2026;51.002;13.668;2023-03-04T18:55:12;99028.28;;;3.49;90.81
4024;BME280;2026;51.002;13.668;2023-03-04T19:00:17;99023.31;;;3.39;91.19
4024;BME280;2026;51.002;13.668;2023-03-04T19:05:24;99031.72;;;3.50;89.54
4024;BME280;2026;51.002;13.668;2023-03-04T19:10:28;99041.44;;;3.47;89.90
4024;BME280;2026;51.002;13.668;2023-03-04T19:15:31;99030.59;;;3.44;90.24
4024;BME280;2026;51.002;13.668;2023-03-04T19:20:35;99033.03;;;3.37;90.41
4024;BME280;2026;51.002;13.668;2023-03-04T19:25:39;99035.63;;;3.37;91.23
4024;BME280;2026;51.002;13.668;2023-03-04T19:30:42;99027.19;;;3.35;91.03
4024;BME280;2026;51.002;13.668;2023-03-04T19:35:47;99025.44;;;3.27;91.14
4024;BME280;2026;51.002;13.668;2023-03-04T19:40:50;99045.53;;;3.17;92.36
4024;BME280;2026;51.002;13.668;2023-03-04T19:45:54;99039.19;;;3.36;91.33
4024;BME280;2026;51.002;13.668;2023-03-04T19:50:59;99036.09;;;3.41;91.29
4024;BME280;2026;51.002;13.668;2023-03-04T19:56:01;99045.00;;;3.30;91.58
4024;BME280;2026;51.002;13.668;2023-03-04T20:01:05;99038.38;;;3.36;90.95
4024;BME280;2026;51.002;13.668;2023-03-04T20:06:09;99038.53;;;3.42;90.51
4024;BME280;2026;51.002;13.668;2023-03-04T20:11:12;99047.47;;;3.23;91.68
4024;BME280;2026;51.002;13.668;2023-03-04T20:16:15;99055.56;;;3.28;91.75
4024;BME280;2026;51.002;13.668;2023-03-04T20:21:20;99050.88;;;2.99;93.89
4024;BME280;2026;51.002;13.668;2023-03-04T20:26:23;99052.03;;;2.96;95.18
4024;BME280;2026;51.002;13.668;2023-03-04T20:31:29;99044.88;;;3.15;95.63
4024;BME280;2026;51.002;13.668;2023-03-04T20:36:34;99040.34;;;3.00;95.46
4024;BME280;2026;51.002;13.668;2023-03-04T20:41:39;99041.81;;;2.95;95.61
4024;BME280;2026;51.002;13.668;2023-03-04T20:46:43;99037.44;;;2.78;96.02
4024;BME280;2026;51.002;13.668;2023-03-04T20:51:48;99045.53;;;2.92;94.71
4024;BME280;2026;51.002;13.668;2023-03-04T20:56:51;99044.25;;;2.96;93.28
4024;BME280;2026;51.002;13.668;2023-03-04T21:01:54;99033.06;;;2.96;93.86
4024;BME280;2026;51.002;13.668;2023-03-04T21:06:59;99033.41;;;2.84;93.77
4024;BME280;2026;51.002;13.668;2023-03-04T21:12:03;99029.34;;;2.82;94.29
4024;BME280;2026;51.002;13.668;2023-03-04T21:17:06;99026.91;;;2.88;94.10
4024;BME280;2026;51.002;13.668;2023-03-04T21:22:12;99032.09;;;2.80;93.98
4024;BME280;2026;51.002;13.668;2023-03-04T21:27:16;99031.75;;;2.67;94.66
4024;BME280;2026;51.002;13.668;2023-03-04T21:32:23;99031.13;;;2.81;94.24
4024;BME280;2026;51.002;13.668;2023-03-04T21:37:28;99028.38;;;2.74;93.29
4024;BME280;2026;51.002;13.668;2023-03-04T21:42:31;99024.81;;;2.75;92.26
4024;BME280;2026;51.002;13.668;2023-03-04T21:47:34;99032.44;;;2.94;90.42
4024;BME280;2026;51.002;13.668;2023-03-04T21:52:38;99024.47;;;2.87;89.08
4024;BME280;2026;51.002;13.668;2023-03-04T21:57:41;99017.53;;;2.79;89.67
4024;BME280;2026;51.002;13.668;2023-03-04T22:02:44;99018.19;;;2.73;90.56
4024;BME280;2026;51.002;13.668;2023-03-04T22:07:48;99012.22;;;2.72;92.20
4024;BME280;2026;51.002;13.668;2023-03-04T22:12:51;99003.28;;;2.58;92.38
4024;BME280;2026;51.002;13.668;2023-03-04T22:17:54;98996.19;;;2.85;96.09
4024;BME280;2026;51.002;13.668;2023-03-04T22:22:58;98989.19;;;3.11;92.98
4024;BME280;2026;51.002;13.668;2023-03-04T22:28:02;98995.22;;;2.78;90.06
4024;BME280;2026;51.002;13.668;2023-03-04T22:33:04;98991.50;;;2.89;90.19
4024;BME280;2026;51.002;13.668;2023-03-04T22:38:09;98992.94;;;2.91;90.50
4024;BME280;2026;51.002;13.668;2023-03-04T22:43:12;98988.91;;;2.81;90.85
4024;BME280;2026;51.002;13.668;2023-03-04T22:48:15;98985.34;;;2.82;91.46
4024;BME280;2026;51.002;13.668;2023-03-04T22:53:19;98985.66;;;2.78;91.34
4024;BME280;2026;51.002;13.668;2023-03-04T22:58:25;98992.78;;;2.76;90.76
4024;BME280;2026;51.002;13.668;2023-03-04T23:03:28;98987.44;;;2.61;90.80
4024;BME280;2026;51.002;13.668;2023-03-04T23:08:33;98986.63;;;2.61;90.93
4024;BME280;2026;51.002;13.668;2023-03-04T23:13:38;98978.84;;;2.53;92.07
4024;BME280;2026;51.002;13.668;2023-03-04T23:18:42;98979.50;;;2.46;90.69
4024;BME280;2026;51.002;13.668;2023-03-04T23:23:48;98975.78;;;2.49;90.91
4024;BME280;2026;51.002;13.668;2023-03-04T23:28:52;98967.84;;;2.34;90.83
4024;BME280;2026;51.002;13.668;2023-03-04T23:33:56;98968.34;;;2.46;89.38
4024;BME280;2026;51.002;13.668;2023-03-04T23:39:02;98966.88;;;2.43;87.98
4024;BME280;2026;51.002;13.668;2023-03-04T23:44:05;98960.41;;;2.31;88.10
4024;BME280;2026;51.002;13.668;2023-03-04T23:49:11;98964.78;;;2.30;87.10
4024;BME280;2026;51.002;13.668;2023-03-04T23:54:16;98960.75;;;2.36;87.43
4024;BME280;2026;51.002;13.668;2023-03-04T23:59:19;98950.38;;;2.36;86.67
